sensor_id;sensor_type;location;lat;lon;timestamp;P1;durP1;ratioP1;P2;durP2;ratioP2
24443;SDS011;13346;50.984;5.822;2023-04-03T00:00:40;4.50;;;4.10;;
24443;SDS011;13346;50.984;5.822;2023-04-03T00:03:09;4.57;;;4.17;;
24443;SDS011;13346;50.984;5.822;2023-04-03T00:05:36;7.77;;;5.50;;
24443;SDS011;13346;50.984;5.822;2023-04-03T00:08:03;4.43;;;4.13;;
24443;SDS011;13346;50.984;5.822;2023-04-03T00:10:33;4.30;;;3.90;;
24443;SDS011;13346;50.984;5.822;2023-04-03T00:13:00;4.83;;;4.30;;
24443;SDS011;13346;50.984;5.822;2023-04-03T00:15:27;4.73;;;4.33;;
24443;SDS011;13346;50.984;5.822;2023-04-03T00:17:55;4.53;;;4.17;;
24443;SDS011;13346;50.984;5.822;2023-04-03T00:20:23;4.53;;;4.13;;
24443;SDS011;13346;50.984;5.822;2023-04-03T00:22:51;4.43;;;4.17;;
24443;SDS011;13346;50.984;5.822;2023-04-03T00:25:18;5.13;;;4.73;;
24443;SDS011;13346;50.984;5.822;2023-04-03T00:27:45;7.27;;;4.27;;
24443;SDS011;13346;50.984;5.822;2023-04-03T00:30:13;4.40;;;4.10;;
24443;SDS011;13346;50.984;5.822;2023-04-03T00:32:41;4.17;;;3.77;;
24443;SDS011;13346;50.984;5.822;2023-04-03T00:35:09;4.83;;;4.43;;
24443;SDS011;13346;50.984;5.822;2023-04-03T00:37:38;5.17;;;4.40;;
24443;SDS011;13346;50.984;5.822;2023-04-03T00:40:06;5.37;;;5.00;;
24443;SDS011;13346;50.984;5.822;2023-04-03T00:42:35;7.47;;;4.77;;
24443;SDS011;13346;50.984;5.822;2023-04-03T00:47:57;5.00;;;4.50;;
24443;SDS011;13346;50.984;5.822;2023-04-03T00:50:26;5.13;;;4.77;;
24443;SDS011;13346;50.984;5.822;2023-04-03T00:52:56;4.27;;;4.07;;
24443;SDS011;13346;50.984;5.822;2023-04-03T00:55:24;5.00;;;4.70;;
24443;SDS011;13346;50.984;5.822;2023-04-03T00:57:52;6.30;;;4.60;;
24443;SDS011;13346;50.984;5.822;2023-04-03T01:00:21;5.33;;;4.83;;
24443;SDS011;13346;50.984;5.822;2023-04-03T01:02:49;7.37;;;4.50;;
24443;SDS011;13346;50.984;5.822;2023-04-03T01:05:17;4.53;;;4.23;;
24443;SDS011;13346;50.984;5.822;2023-04-03T01:07:47;5.27;;;4.77;;
24443;SDS011;13346;50.984;5.822;2023-04-03T01:10:18;5.20;;;4.80;;
24443;SDS011;13346;50.984;5.822;2023-04-03T01:12:47;7.90;;;5.13;;
24443;SDS011;13346;50.984;5.822;2023-04-03T01:15:16;5.10;;;4.70;;
24443;SDS011;13346;50.984;5.822;2023-04-03T01:17:46;5.40;;;4.53;;
24443;SDS011;13346;50.984;5.822;2023-04-03T01:20:29;5.17;;;4.77;;
24443;SDS011;13346;50.984;5.822;2023-04-03T01:23:36;4.70;;;4.30;;
24443;SDS011;13346;50.984;5.822;2023-04-03T01:26:19;5.23;;;4.77;;
24443;SDS011;13346;50.984;5.822;2023-04-03T01:28:46;5.03;;;4.53;;
24443;SDS011;13346;50.984;5.822;2023-04-03T01:31:15;5.47;;;5.07;;
24443;SDS011;13346;50.984;5.822;2023-04-03T01:33:48;4.80;;;4.40;;
24443;SDS011;13346;50.984;5.822;2023-04-03T01:36:16;5.80;;;5.17;;
24443;SDS011;13346;50.984;5.822;2023-04-03T01:38:45;5.73;;;5.23;;
24443;SDS011;13346;50.984;5.822;2023-04-03T01:41:13;5.27;;;4.80;;
24443;SDS011;13346;50.984;5.822;2023-04-03T01:43:40;4.77;;;4.57;;
24443;SDS011;13346;50.984;5.822;2023-04-03T01:46:07;4.97;;;4.67;;
24443;SDS011;13346;50.984;5.822;2023-04-03T01:48:35;6.23;;;5.73;;
24443;SDS011;13346;50.984;5.822;2023-04-03T01:51:03;5.27;;;4.80;;
24443;SDS011;13346;50.984;5.822;2023-04-03T01:53:31;6.07;;;5.63;;
24443;SDS011;13346;50.984;5.822;2023-04-03T01:55:58;6.13;;;5.63;;
24443;SDS011;13346;50.984;5.822;2023-04-03T01:58:25;6.33;;;5.80;;
24443;SDS011;13346;50.984;5.822;2023-04-03T02:00:53;6.37;;;5.93;;
24443;SDS011;13346;50.984;5.822;2023-04-03T02:03:21;6.87;;;6.27;;
24443;SDS011;13346;50.984;5.822;2023-04-03T02:05:48;6.13;;;5.50;;
24443;SDS011;13346;50.984;5.822;2023-04-03T02:08:18;6.33;;;5.93;;
24443;SDS011;13346;50.984;5.822;2023-04-03T02:10:46;9.47;;;6.20;;
24443;SDS011;13346;50.984;5.822;2023-04-03T02:13:14;5.93;;;5.47;;
24443;SDS011;13346;50.984;5.822;2023-04-03T02:15:42;6.27;;;5.77;;
24443;SDS011;13346;50.984;5.822;2023-04-03T02:18:10;6.67;;;6.10;;
24443;SDS011;13346;50.984;5.822;2023-04-03T02:20:37;5.30;;;4.90;;
24443;SDS011;13346;50.984;5.822;2023-04-03T02:23:05;6.70;;;5.80;;
24443;SDS011;13346;50.984;5.822;2023-04-03T02:25:33;6.10;;;5.57;;
24443;SDS011;13346;50.984;5.822;2023-04-03T02:28:01;6.87;;;6.20;;
24443;SDS011;13346;50.984;5.822;2023-04-03T02:30:28;5.47;;;4.90;;
24443;SDS011;13346;50.984;5.822;2023-04-03T02:32:55;7.60;;;5.60;;
24443;SDS011;13346;50.984;5.822;2023-04-03T02:35:22;6.13;;;5.60;;
24443;SDS011;13346;50.984;5.822;2023-04-03T02:37:49;6.57;;;5.97;;
24443;SDS011;13346;50.984;5.822;2023-04-03T02:40:17;6.20;;;5.60;;
24443;SDS011;13346;50.984;5.822;2023-04-03T02:42:45;6.97;;;6.37;;
24443;SDS011;13346;50.984;5.822;2023-04-03T02:45:13;6.53;;;5.93;;
24443;SDS011;13346;50.984;5.822;2023-04-03T02:47:40;5.87;;;5.43;;
24443;SDS011;13346;50.984;5.822;2023-04-03T02:50:07;6.50;;;6.10;;
24443;SDS011;13346;50.984;5.822;2023-04-03T02:52:35;6.23;;;5.73;;
24443;SDS011;13346;50.984;5.822;2023-04-03T02:55:02;6.67;;;6.17;;
24443;SDS011;13346;50.984;5.822;2023-04-03T02:57:30;6.50;;;6.00;;
24443;SDS011;13346;50.984;5.822;2023-04-03T02:59:59;7.23;;;6.53;;
24443;SDS011;13346;50.984;5.822;2023-04-03T03:02:26;7.63;;;6.93;;
24443;SDS011;13346;50.984;5.822;2023-04-03T03:04:53;6.80;;;6.30;;
24443;SDS011;13346;50.984;5.822;2023-04-03T03:07:20;7.60;;;6.93;;
24443;SDS011;13346;50.984;5.822;2023-04-03T03:09:47;6.83;;;6.13;;
24443;SDS011;13346;50.984;5.822;2023-04-03T03:12:14;7.03;;;6.33;;
24443;SDS011;13346;50.984;5.822;2023-04-03T03:14:46;8.93;;;6.57;;
24443;SDS011;13346;50.984;5.822;2023-04-03T03:17:15;8.87;;;6.50;;
24443;SDS011;13346;50.984;5.822;2023-04-03T03:19:42;6.93;;;6.40;;
24443;SDS011;13346;50.984;5.822;2023-04-03T03:22:10;7.53;;;6.83;;
24443;SDS011;13346;50.984;5.822;2023-04-03T03:24:38;6.70;;;6.20;;
24443;SDS011;13346;50.984;5.822;2023-04-03T03:27:05;6.43;;;5.73;;
24443;SDS011;13346;50.984;5.822;2023-04-03T03:29:32;7.13;;;6.43;;
24443;SDS011;13346;50.984;5.822;2023-04-03T03:31:59;6.23;;;5.63;;
24443;SDS011;13346;50.984;5.822;2023-04-03T03:34:28;7.63;;;6.00;;
24443;SDS011;13346;50.984;5.822;2023-04-03T03:36:55;7.37;;;6.87;;
24443;SDS011;13346;50.984;5.822;2023-04-03T03:39:22;7.27;;;6.70;;
24443;SDS011;13346;50.984;5.822;2023-04-03T03:41:49;11.17;;;7.00;;
24443;SDS011;13346;50.984;5.822;2023-04-03T03:44:18;7.90;;;7.20;;
24443;SDS011;13346;50.984;5.822;2023-04-03T03:46:45;7.83;;;6.57;;
24443;SDS011;13346;50.984;5.822;2023-04-03T03:49:12;8.03;;;6.70;;
24443;SDS011;13346;50.984;5.822;2023-04-03T03:51:41;7.53;;;6.90;;
24443;SDS011;13346;50.984;5.822;2023-04-03T03:54:09;8.40;;;6.63;;
24443;SDS011;13346;50.984;5.822;2023-04-03T03:56:36;7.07;;;6.47;;
24443;SDS011;13346;50.984;5.822;2023-04-03T03:59:03;6.83;;;6.33;;
24443;SDS011;13346;50.984;5.822;2023-04-03T04:01:31;10.33;;;8.53;;
24443;SDS011;13346;50.984;5.822;2023-04-03T04:03:58;7.13;;;6.33;;
24443;SDS011;13346;50.984;5.822;2023-04-03T04:06:25;7.60;;;6.90;;
24443;SDS011;13346;50.984;5.822;2023-04-03T04:08:54;8.43;;;7.60;;
24443;SDS011;13346;50.984;5.822;2023-04-03T04:11:21;7.63;;;7.00;;
24443;SDS011;13346;50.984;5.822;2023-04-03T04:13:48;8.27;;;7.47;;
24443;SDS011;13346;50.984;5.822;2023-04-03T04:16:15;8.47;;;7.67;;
24443;SDS011;13346;50.984;5.822;2023-04-03T04:18:43;7.60;;;6.90;;
24443;SDS011;13346;50.984;5.822;2023-04-03T04:21:10;9.53;;;7.30;;
24443;SDS011;13346;50.984;5.822;2023-04-03T04:23:37;11.07;;;8.47;;
24443;SDS011;13346;50.984;5.822;2023-04-03T04:26:05;8.17;;;7.43;;
24443;SDS011;13346;50.984;5.822;2023-04-03T04:28:33;8.50;;;7.70;;
24443;SDS011;13346;50.984;5.822;2023-04-03T04:31:00;8.80;;;7.90;;
24443;SDS011;13346;50.984;5.822;2023-04-03T04:33:27;9.00;;;8.20;;
24443;SDS011;13346;50.984;5.822;2023-04-03T04:35:54;8.90;;;7.97;;
24443;SDS011;13346;50.984;5.822;2023-04-03T04:38:21;10.10;;;8.83;;
24443;SDS011;13346;50.984;5.822;2023-04-03T04:40:48;10.10;;;9.30;;
24443;SDS011;13346;50.984;5.822;2023-04-03T04:43:17;9.27;;;8.57;;
24443;SDS011;13346;50.984;5.822;2023-04-03T04:45:44;9.80;;;8.37;;
24443;SDS011;13346;50.984;5.822;2023-04-03T04:48:12;10.37;;;9.33;;
24443;SDS011;13346;50.984;5.822;2023-04-03T04:50:39;15.10;;;9.13;;
24443;SDS011;13346;50.984;5.822;2023-04-03T04:53:06;10.30;;;9.40;;
24443;SDS011;13346;50.984;5.822;2023-04-03T04:55:33;11.80;;;9.67;;
24443;SDS011;13346;50.984;5.822;2023-04-03T04:58:00;9.80;;;8.80;;
24443;SDS011;13346;50.984;5.822;2023-04-03T05:00:29;11.07;;;9.93;;
24443;SDS011;13346;50.984;5.822;2023-04-03T05:02:56;13.30;;;9.70;;
24443;SDS011;13346;50.984;5.822;2023-04-03T05:05:23;10.57;;;8.93;;
24443;SDS011;13346;50.984;5.822;2023-04-03T05:07:51;10.03;;;9.03;;
24443;SDS011;13346;50.984;5.822;2023-04-03T05:10:18;11.67;;;9.40;;
24443;SDS011;13346;50.984;5.822;2023-04-03T05:12:45;11.13;;;9.47;;
24443;SDS011;13346;50.984;5.822;2023-04-03T05:15:12;10.10;;;9.30;;
24443;SDS011;13346;50.984;5.822;2023-04-03T05:17:41;10.07;;;9.07;;
24443;SDS011;13346;50.984;5.822;2023-04-03T05:20:09;11.97;;;9.00;;
24443;SDS011;13346;50.984;5.822;2023-04-03T05:22:36;9.90;;;8.87;;
24443;SDS011;13346;50.984;5.822;2023-04-03T05:25:04;10.43;;;9.37;;
24443;SDS011;13346;50.984;5.822;2023-04-03T05:27:32;13.00;;;8.93;;
24443;SDS011;13346;50.984;5.822;2023-04-03T05:29:59;13.37;;;9.00;;
24443;SDS011;13346;50.984;5.822;2023-04-03T05:32:26;8.97;;;8.07;;
24443;SDS011;13346;50.984;5.822;2023-04-03T05:34:55;9.33;;;8.53;;
24443;SDS011;13346;50.984;5.822;2023-04-03T05:37:22;9.00;;;8.20;;
24443;SDS011;13346;50.984;5.822;2023-04-03T05:39:49;8.83;;;8.07;;
24443;SDS011;13346;50.984;5.822;2023-04-03T05:42:16;7.57;;;6.87;;
24443;SDS011;13346;50.984;5.822;2023-04-03T05:44:44;8.53;;;7.73;;
24443;SDS011;13346;50.984;5.822;2023-04-03T05:47:12;7.83;;;7.13;;
24443;SDS011;13346;50.984;5.822;2023-04-03T05:49:39;7.87;;;6.93;;
24443;SDS011;13346;50.984;5.822;2023-04-03T05:52:10;6.73;;;5.77;;
24443;SDS011;13346;50.984;5.822;2023-04-03T05:54:44;7.20;;;6.63;;
24443;SDS011;13346;50.984;5.822;2023-04-03T05:57:13;8.77;;;7.87;;
24443;SDS011;13346;50.984;5.822;2023-04-03T05:59:41;7.07;;;5.90;;
24443;SDS011;13346;50.984;5.822;2023-04-03T06:02:10;7.97;;;6.13;;
24443;SDS011;13346;50.984;5.822;2023-04-03T06:04:37;5.67;;;4.83;;
24443;SDS011;13346;50.984;5.822;2023-04-03T06:07:05;5.87;;;5.23;;
24443;SDS011;13346;50.984;5.822;2023-04-03T06:09:34;5.43;;;4.93;;
24443;SDS011;13346;50.984;5.822;2023-04-03T06:12:01;6.00;;;5.50;;
24443;SDS011;13346;50.984;5.822;2023-04-03T06:14:28;6.17;;;5.27;;
24443;SDS011;13346;50.984;5.822;2023-04-03T06:16:56;5.37;;;4.97;;
24443;SDS011;13346;50.984;5.822;2023-04-03T06:19:23;6.07;;;3.23;;
24443;SDS011;13346;50.984;5.822;2023-04-03T06:21:51;4.23;;;3.87;;
24443;SDS011;13346;50.984;5.822;2023-04-03T06:24:18;4.50;;;4.10;;
24443;SDS011;13346;50.984;5.822;2023-04-03T06:26:48;4.07;;;3.77;;
24443;SDS011;13346;50.984;5.822;2023-04-03T06:29:17;3.93;;;3.63;;
24443;SDS011;13346;50.984;5.822;2023-04-03T06:31:45;5.13;;;3.07;;
24443;SDS011;13346;50.984;5.822;2023-04-03T06:34:13;4.83;;;4.00;;
24443;SDS011;13346;50.984;5.822;2023-04-03T06:36:42;3.93;;;3.40;;
24443;SDS011;13346;50.984;5.822;2023-04-03T06:39:10;3.23;;;2.93;;
24443;SDS011;13346;50.984;5.822;2023-04-03T06:41:40;3.47;;;2.93;;
24443;SDS011;13346;50.984;5.822;2023-04-03T06:44:09;3.90;;;2.90;;
24443;SDS011;13346;50.984;5.822;2023-04-03T06:46:38;4.47;;;3.43;;
24443;SDS011;13346;50.984;5.822;2023-04-03T06:49:05;3.07;;;2.50;;
24443;SDS011;13346;50.984;5.822;2023-04-03T06:51:34;3.50;;;2.33;;
24443;SDS011;13346;50.984;5.822;2023-04-03T06:54:02;2.07;;;1.97;;
24443;SDS011;13346;50.984;5.822;2023-04-03T06:56:30;4.83;;;2.77;;
24443;SDS011;13346;50.984;5.822;2023-04-03T06:58:57;2.67;;;2.47;;
24443;SDS011;13346;50.984;5.822;2023-04-03T07:01:26;2.70;;;2.50;;
24443;SDS011;13346;50.984;5.822;2023-04-03T07:03:55;4.40;;;1.83;;
24443;SDS011;13346;50.984;5.822;2023-04-03T07:06:24;2.73;;;2.43;;
24443;SDS011;13346;50.984;5.822;2023-04-03T07:08:53;2.87;;;2.43;;
24443;SDS011;13346;50.984;5.822;2023-04-03T07:11:20;3.63;;;3.30;;
24443;SDS011;13346;50.984;5.822;2023-04-03T07:13:48;5.57;;;3.13;;
24443;SDS011;13346;50.984;5.822;2023-04-03T07:16:15;5.67;;;2.63;;
24443;SDS011;13346;50.984;5.822;2023-04-03T07:18:44;5.53;;;3.23;;
24443;SDS011;13346;50.984;5.822;2023-04-03T07:21:12;3.50;;;1.93;;
24443;SDS011;13346;50.984;5.822;2023-04-03T07:23:39;2.60;;;2.33;;
24443;SDS011;13346;50.984;5.822;2023-04-03T07:26:06;3.70;;;3.17;;
24443;SDS011;13346;50.984;5.822;2023-04-03T07:28:34;4.80;;;3.33;;
24443;SDS011;13346;50.984;5.822;2023-04-03T07:31:02;1.87;;;1.63;;
24443;SDS011;13346;50.984;5.822;2023-04-03T07:33:33;4.73;;;2.90;;
24443;SDS011;13346;50.984;5.822;2023-04-03T07:36:03;3.83;;;3.43;;
24443;SDS011;13346;50.984;5.822;2023-04-03T07:38:32;3.60;;;3.30;;
24443;SDS011;13346;50.984;5.822;2023-04-03T07:41:00;3.20;;;2.87;;
24443;SDS011;13346;50.984;5.822;2023-04-03T07:43:27;3.00;;;2.80;;
24443;SDS011;13346;50.984;5.822;2023-04-03T07:45:55;2.50;;;2.30;;
24443;SDS011;13346;50.984;5.822;2023-04-03T07:48:23;4.00;;;2.50;;
24443;SDS011;13346;50.984;5.822;2023-04-03T07:50:51;3.00;;;2.80;;
24443;SDS011;13346;50.984;5.822;2023-04-03T07:53:20;6.33;;;2.80;;
24443;SDS011;13346;50.984;5.822;2023-04-03T07:55:47;5.20;;;2.87;;
24443;SDS011;13346;50.984;5.822;2023-04-03T07:58:17;6.30;;;3.23;;
24443;SDS011;13346;50.984;5.822;2023-04-03T08:00:45;4.37;;;2.70;;
24443;SDS011;13346;50.984;5.822;2023-04-03T08:03:12;3.23;;;2.87;;
24443;SDS011;13346;50.984;5.822;2023-04-03T08:05:42;3.17;;;2.67;;
24443;SDS011;13346;50.984;5.822;2023-04-03T08:08:11;2.27;;;2.17;;
24443;SDS011;13346;50.984;5.822;2023-04-03T08:10:42;4.03;;;2.40;;
24443;SDS011;13346;50.984;5.822;2023-04-03T08:13:09;3.60;;;1.40;;
24443;SDS011;13346;50.984;5.822;2023-04-03T08:15:36;2.87;;;2.67;;
24443;SDS011;13346;50.984;5.822;2023-04-03T08:18:03;2.43;;;2.00;;
24443;SDS011;13346;50.984;5.822;2023-04-03T08:20:31;6.63;;;3.10;;
24443;SDS011;13346;50.984;5.822;2023-04-03T08:22:58;4.73;;;3.23;;
24443;SDS011;13346;50.984;5.822;2023-04-03T08:25:25;2.67;;;2.47;;
24443;SDS011;13346;50.984;5.822;2023-04-03T08:27:56;3.27;;;2.97;;
24443;SDS011;13346;50.984;5.822;2023-04-03T08:30:23;3.83;;;2.53;;
24443;SDS011;13346;50.984;5.822;2023-04-03T08:32:50;1.43;;;1.33;;
24443;SDS011;13346;50.984;5.822;2023-04-03T08:35:17;3.40;;;2.30;;
24443;SDS011;13346;50.984;5.822;2023-04-03T08:37:45;4.40;;;2.47;;
24443;SDS011;13346;50.984;5.822;2023-04-03T08:40:13;3.23;;;2.30;;
24443;SDS011;13346;50.984;5.822;2023-04-03T08:42:45;1.90;;;1.80;;
24443;SDS011;13346;50.984;5.822;2023-04-03T08:45:21;1.40;;;1.30;;
24443;SDS011;13346;50.984;5.822;2023-04-03T08:48:00;2.10;;;1.53;;
24443;SDS011;13346;50.984;5.822;2023-04-03T08:50:33;2.33;;;1.53;;
24443;SDS011;13346;50.984;5.822;2023-04-03T08:53:05;2.67;;;2.53;;
24443;SDS011;13346;50.984;5.822;2023-04-03T08:55:40;2.40;;;2.07;;
24443;SDS011;13346;50.984;5.822;2023-04-03T08:58:10;1.60;;;1.50;;
24443;SDS011;13346;50.984;5.822;2023-04-03T09:00:43;2.97;;;1.77;;
24443;SDS011;13346;50.984;5.822;2023-04-03T09:03:13;1.67;;;1.57;;
24443;SDS011;13346;50.984;5.822;2023-04-03T09:05:43;1.30;;;1.13;;
24443;SDS011;13346;50.984;5.822;2023-04-03T09:08:19;0.97;;;0.97;;
24443;SDS011;13346;50.984;5.822;2023-04-03T09:10:49;1.70;;;1.33;;
24443;SDS011;13346;50.984;5.822;2023-04-03T09:13:26;1.97;;;1.40;;
24443;SDS011;13346;50.984;5.822;2023-04-03T09:15:59;2.70;;;1.37;;
24443;SDS011;13346;50.984;5.822;2023-04-03T09:18:32;1.47;;;1.37;;
24443;SDS011;13346;50.984;5.822;2023-04-03T09:21:07;1.43;;;1.30;;
24443;SDS011;13346;50.984;5.822;2023-04-03T09:23:42;2.57;;;1.67;;
24443;SDS011;13346;50.984;5.822;2023-04-03T09:26:13;1.67;;;1.50;;
24443;SDS011;13346;50.984;5.822;2023-04-03T09:28:44;1.10;;;1.10;;
24443;SDS011;13346;50.984;5.822;2023-04-03T09:31:16;3.13;;;1.20;;
24443;SDS011;13346;50.984;5.822;2023-04-03T09:33:47;0.83;;;0.83;;
24443;SDS011;13346;50.984;5.822;2023-04-03T09:39:08;2.43;;;1.00;;
24443;SDS011;13346;50.984;5.822;2023-04-03T09:41:38;3.50;;;2.20;;
24443;SDS011;13346;50.984;5.822;2023-04-03T09:44:17;4.53;;;1.23;;
24443;SDS011;13346;50.984;5.822;2023-04-03T09:46:49;0.80;;;0.80;;
24443;SDS011;13346;50.984;5.822;2023-04-03T09:49:16;0.77;;;0.77;;
24443;SDS011;13346;50.984;5.822;2023-04-03T09:51:44;1.57;;;1.30;;
24443;SDS011;13346;50.984;5.822;2023-04-03T09:54:25;0.90;;;0.87;;
24443;SDS011;13346;50.984;5.822;2023-04-03T09:56:57;1.80;;;1.50;;
24443;SDS011;13346;50.984;5.822;2023-04-03T09:59:29;1.90;;;1.63;;
24443;SDS011;13346;50.984;5.822;2023-04-03T10:02:00;1.50;;;1.40;;
24443;SDS011;13346;50.984;5.822;2023-04-03T10:04:39;1.07;;;1.07;;
24443;SDS011;13346;50.984;5.822;2023-04-03T10:07:26;0.77;;;0.77;;
24443;SDS011;13346;50.984;5.822;2023-04-03T10:09:56;2.03;;;1.33;;
24443;SDS011;13346;50.984;5.822;2023-04-03T10:12:25;1.10;;;1.10;;
24443;SDS011;13346;50.984;5.822;2023-04-03T10:14:56;0.70;;;0.70;;
24443;SDS011;13346;50.984;5.822;2023-04-03T10:17:29;0.70;;;0.70;;
24443;SDS011;13346;50.984;5.822;2023-04-03T10:20:05;2.20;;;2.10;;
24443;SDS011;13346;50.984;5.822;2023-04-03T10:22:41;1.33;;;1.23;;
24443;SDS011;13346;50.984;5.822;2023-04-03T10:25:17;1.03;;;0.97;;
24443;SDS011;13346;50.984;5.822;2023-04-03T10:27:52;0.70;;;0.70;;
24443;SDS011;13346;50.984;5.822;2023-04-03T10:30:29;1.43;;;1.10;;
24443;SDS011;13346;50.984;5.822;2023-04-03T10:33:08;1.83;;;1.43;;
24443;SDS011;13346;50.984;5.822;2023-04-03T10:35:49;1.63;;;1.00;;
24443;SDS011;13346;50.984;5.822;2023-04-03T10:38:29;2.43;;;1.17;;
24443;SDS011;13346;50.984;5.822;2023-04-03T10:41:04;1.07;;;1.07;;
24443;SDS011;13346;50.984;5.822;2023-04-03T10:43:37;0.97;;;0.93;;
24443;SDS011;13346;50.984;5.822;2023-04-03T10:46:11;0.93;;;0.93;;
24443;SDS011;13346;50.984;5.822;2023-04-03T10:48:49;0.87;;;0.87;;
24443;SDS011;13346;50.984;5.822;2023-04-03T10:51:29;1.47;;;1.33;;
24443;SDS011;13346;50.984;5.822;2023-04-03T10:54:04;0.57;;;0.57;;
24443;SDS011;13346;50.984;5.822;2023-04-03T10:56:39;2.07;;;1.67;;
24443;SDS011;13346;50.984;5.822;2023-04-03T10:59:16;1.23;;;1.13;;
24443;SDS011;13346;50.984;5.822;2023-04-03T11:01:50;0.87;;;0.87;;
24443;SDS011;13346;50.984;5.822;2023-04-03T11:04:22;1.20;;;1.20;;
24443;SDS011;13346;50.984;5.822;2023-04-03T11:06:54;2.30;;;1.13;;
24443;SDS011;13346;50.984;5.822;2023-04-03T11:09:27;2.33;;;1.33;;
24443;SDS011;13346;50.984;5.822;2023-04-03T11:11:57;0.83;;;0.83;;
24443;SDS011;13346;50.984;5.822;2023-04-03T11:14:31;1.80;;;0.70;;
24443;SDS011;13346;50.984;5.822;2023-04-03T11:17:05;2.93;;;1.60;;
24443;SDS011;13346;50.984;5.822;2023-04-03T11:19:44;2.33;;;1.00;;
24443;SDS011;13346;50.984;5.822;2023-04-03T11:22:16;0.90;;;0.90;;
24443;SDS011;13346;50.984;5.822;2023-04-03T11:24:53;0.95;;;0.95;;
24443;SDS011;13346;50.984;5.822;2023-04-03T11:27:25;2.13;;;1.60;;
24443;SDS011;13346;50.984;5.822;2023-04-03T11:29:58;1.60;;;1.50;;
24443;SDS011;13346;50.984;5.822;2023-04-03T11:32:33;1.63;;;1.52;;
24443;SDS011;13346;50.984;5.822;2023-04-03T11:35:12;2.08;;;1.90;;
24443;SDS011;13346;50.984;5.822;2023-04-03T11:37:41;2.30;;;1.50;;
24443;SDS011;13346;50.984;5.822;2023-04-03T11:40:19;1.23;;;1.23;;
24443;SDS011;13346;50.984;5.822;2023-04-03T11:42:49;1.60;;;1.45;;
24443;SDS011;13346;50.984;5.822;2023-04-03T11:45:25;1.63;;;1.52;;
24443;SDS011;13346;50.984;5.822;2023-04-03T11:48:00;1.20;;;1.10;;
24443;SDS011;13346;50.984;5.822;2023-04-03T11:50:40;2.70;;;1.20;;
24443;SDS011;13346;50.984;5.822;2023-04-03T11:53:31;0.90;;;0.90;;
24443;SDS011;13346;50.984;5.822;2023-04-03T12:01:48;1.77;;;1.23;;
24443;SDS011;13346;50.984;5.822;2023-04-03T12:04:17;1.38;;;1.02;;
24443;SDS011;13346;50.984;5.822;2023-04-03T12:12:42;1.40;;;1.00;;
24443;SDS011;13346;50.984;5.822;2023-04-03T12:15:25;4.68;;;1.48;;
24443;SDS011;13346;50.984;5.822;2023-04-03T12:21:18;0.70;;;0.70;;
24443;SDS011;13346;50.984;5.822;2023-04-03T12:24:00;1.33;;;1.23;;
24443;SDS011;13346;50.984;5.822;2023-04-03T12:26:30;1.55;;;1.55;;
24443;SDS011;13346;50.984;5.822;2023-04-03T12:29:02;2.20;;;1.40;;
24443;SDS011;13346;50.984;5.822;2023-04-03T12:31:45;2.50;;;1.30;;
24443;SDS011;13346;50.984;5.822;2023-04-03T12:34:27;0.87;;;0.87;;
24443;SDS011;13346;50.984;5.822;2023-04-03T12:37:17;2.27;;;1.93;;
24443;SDS011;13346;50.984;5.822;2023-04-03T12:40:06;1.30;;;1.30;;
24443;SDS011;13346;50.984;5.822;2023-04-03T12:45:58;1.30;;;1.20;;
24443;SDS011;13346;50.984;5.822;2023-04-03T12:48:31;1.80;;;0.90;;
24443;SDS011;13346;50.984;5.822;2023-04-03T12:51:03;1.00;;;1.00;;
24443;SDS011;13346;50.984;5.822;2023-04-03T12:53:31;1.20;;;1.20;;
24443;SDS011;13346;50.984;5.822;2023-04-03T12:58:48;4.10;;;1.67;;
24443;SDS011;13346;50.984;5.822;2023-04-03T13:01:17;1.20;;;1.10;;
24443;SDS011;13346;50.984;5.822;2023-04-03T13:03:48;1.23;;;1.10;;
24443;SDS011;13346;50.984;5.822;2023-04-03T13:06:19;1.57;;;1.53;;
24443;SDS011;13346;50.984;5.822;2023-04-03T13:08:49;1.40;;;1.30;;
24443;SDS011;13346;50.984;5.822;2023-04-03T13:11:17;1.80;;;1.70;;
24443;SDS011;13346;50.984;5.822;2023-04-03T13:13:54;1.20;;;1.20;;
24443;SDS011;13346;50.984;5.822;2023-04-03T13:16:23;1.33;;;1.13;;
24443;SDS011;13346;50.984;5.822;2023-04-03T13:18:50;2.13;;;1.40;;
24443;SDS011;13346;50.984;5.822;2023-04-03T13:21:18;2.80;;;1.93;;
24443;SDS011;13346;50.984;5.822;2023-04-03T13:23:48;1.70;;;1.60;;
24443;SDS011;13346;50.984;5.822;2023-04-03T13:26:18;2.07;;;1.67;;
24443;SDS011;13346;50.984;5.822;2023-04-03T13:28:48;2.63;;;1.57;;
24443;SDS011;13346;50.984;5.822;2023-04-03T13:31:18;1.07;;;1.07;;
24443;SDS011;13346;50.984;5.822;2023-04-03T13:33:54;2.07;;;1.40;;
24443;SDS011;13346;50.984;5.822;2023-04-03T13:36:24;1.20;;;1.10;;
24443;SDS011;13346;50.984;5.822;2023-04-03T13:39:04;1.23;;;1.23;;
24443;SDS011;13346;50.984;5.822;2023-04-03T13:41:35;1.00;;;1.00;;
24443;SDS011;13346;50.984;5.822;2023-04-03T13:44:25;2.27;;;1.50;;
24443;SDS011;13346;50.984;5.822;2023-04-03T13:46:56;1.40;;;1.30;;
24443;SDS011;13346;50.984;5.822;2023-04-03T13:49:30;1.00;;;0.93;;
24443;SDS011;13346;50.984;5.822;2023-04-03T13:52:00;3.43;;;1.80;;
24443;SDS011;13346;50.984;5.822;2023-04-03T13:54:47;1.30;;;1.30;;
24443;SDS011;13346;50.984;5.822;2023-04-03T13:57:20;2.60;;;1.57;;
24443;SDS011;13346;50.984;5.822;2023-04-03T13:59:48;1.80;;;1.63;;
24443;SDS011;13346;50.984;5.822;2023-04-03T14:02:17;1.27;;;1.20;;
24443;SDS011;13346;50.984;5.822;2023-04-03T14:04:50;1.37;;;1.23;;
24443;SDS011;13346;50.984;5.822;2023-04-03T14:07:23;1.20;;;1.10;;
24443;SDS011;13346;50.984;5.822;2023-04-03T14:09:51;2.13;;;1.37;;
24443;SDS011;13346;50.984;5.822;2023-04-03T14:12:21;1.73;;;1.20;;
24443;SDS011;13346;50.984;5.822;2023-04-03T14:14:52;1.70;;;1.30;;
24443;SDS011;13346;50.984;5.822;2023-04-03T14:17:22;1.55;;;1.45;;
24443;SDS011;13346;50.984;5.822;2023-04-03T14:19:51;0.90;;;0.90;;
24443;SDS011;13346;50.984;5.822;2023-04-03T14:22:20;3.28;;;1.00;;
24443;SDS011;13346;50.984;5.822;2023-04-03T14:24:49;2.63;;;1.40;;
24443;SDS011;13346;50.984;5.822;2023-04-03T14:27:19;1.38;;;1.05;;
24443;SDS011;13346;50.984;5.822;2023-04-03T14:29:50;1.30;;;1.20;;
24443;SDS011;13346;50.984;5.822;2023-04-03T14:32:19;1.20;;;1.10;;
24443;SDS011;13346;50.984;5.822;2023-04-03T14:34:48;0.90;;;0.90;;
24443;SDS011;13346;50.984;5.822;2023-04-03T14:37:18;1.17;;;1.15;;
24443;SDS011;13346;50.984;5.822;2023-04-03T14:39:49;1.17;;;1.08;;
24443;SDS011;13346;50.984;5.822;2023-04-03T14:42:19;1.58;;;1.00;;
24443;SDS011;13346;50.984;5.822;2023-04-03T14:44:49;0.95;;;0.85;;
24443;SDS011;13346;50.984;5.822;2023-04-03T14:47:18;1.38;;;1.27;;
24443;SDS011;13346;50.984;5.822;2023-04-03T14:49:48;1.58;;;1.10;;
24443;SDS011;13346;50.984;5.822;2023-04-03T14:52:17;1.48;;;1.23;;
24443;SDS011;13346;50.984;5.822;2023-04-03T14:54:46;0.93;;;0.80;;
24443;SDS011;13346;50.984;5.822;2023-04-03T14:57:15;2.17;;;1.33;;
24443;SDS011;13346;50.984;5.822;2023-04-03T14:59:44;2.13;;;1.38;;
24443;SDS011;13346;50.984;5.822;2023-04-03T15:02:24;1.98;;;1.42;;
24443;SDS011;13346;50.984;5.822;2023-04-03T15:04:54;2.75;;;1.63;;
24443;SDS011;13346;50.984;5.822;2023-04-03T15:07:22;0.80;;;0.80;;
24443;SDS011;13346;50.984;5.822;2023-04-03T15:09:51;1.43;;;1.13;;
24443;SDS011;13346;50.984;5.822;2023-04-03T15:12:21;1.30;;;1.20;;
24443;SDS011;13346;50.984;5.822;2023-04-03T15:14:50;1.40;;;1.30;;
24443;SDS011;13346;50.984;5.822;2023-04-03T15:17:19;1.55;;;1.17;;
24443;SDS011;13346;50.984;5.822;2023-04-03T15:19:48;1.33;;;1.30;;
24443;SDS011;13346;50.984;5.822;2023-04-03T15:22:17;1.20;;;1.20;;
24443;SDS011;13346;50.984;5.822;2023-04-03T15:24:45;0.90;;;0.90;;
24443;SDS011;13346;50.984;5.822;2023-04-03T15:27:13;0.83;;;0.83;;
24443;SDS011;13346;50.984;5.822;2023-04-03T15:29:41;1.50;;;1.40;;
24443;SDS011;13346;50.984;5.822;2023-04-03T15:32:11;1.47;;;1.37;;